createdAt,value
2019-03-01T00:00:58.651Z,77.65
2019-03-01T00:03:29.735Z,77.60
2019-03-01T00:06:12.720Z,78.06
2019-03-01T00:08:58.908Z,77.80
2019-03-01T00:11:45.288Z,78.20
2019-03-01T00:14:52.708Z,77.97
2019-03-01T00:17:32.599Z,77.59
2019-03-01T00:20:38.824Z,77.24
2019-03-01T00:23:42.120Z,77.31
2019-03-01T00:26:21.963Z,76.96
2019-03-01T00:28:56.085Z,77.11
2019-03-01T00:31:36.024Z,77.05
2019-03-01T00:34:22.184Z,77.07
2019-03-01T00:37:15.620Z,76.78
2019-03-01T00:39:58.495Z,76.40
2019-03-01T00:43:05.605Z,76.16
2019-03-01T00:45:36.596Z,76.22
2019-03-01T00:48:07.463Z,76.02
2019-03-01T00:50:38.672Z,75.96
2019-03-01T00:53:09.619Z,76.11
2019-03-01T00:55:40.562Z,75.79
2019-03-01T00:58:11.426Z,75.75
2019-03-01T01:00:45.926Z,75.58
2019-03-01T01:03:16.793Z,76.04
2019-03-01T01:05:47.795Z,76.05
2019-03-01T01:08:18.837Z,76.21
2019-03-01T01:10:49.766Z,75.77
2019-03-01T01:13:20.622Z,75.73
2019-03-01T01:15:51.616Z,75.66
2019-03-01T01:18:22.484Z,74.52
2019-03-01T01:20:53.365Z,74.64
2019-03-01T01:23:24.222Z,74.65
2019-03-01T01:25:55.083Z,74.14
2019-03-01T01:28:27.141Z,74.55
2019-03-01T01:30:58.111Z,73.83
2019-03-01T01:33:28.984Z,72.66
2019-03-01T01:35:59.852Z,73.07
2019-03-01T01:38:30.719Z,73.20
2019-03-01T01:41:01.652Z,72.56
2019-03-01T01:43:32.702Z,72.01
2019-03-01T01:46:03.566Z,71.08
2019-03-01T01:48:34.479Z,70.42
2019-03-01T01:51:05.437Z,70.62
2019-03-01T01:53:36.395Z,69.85
2019-03-01T01:56:07.398Z,69.39
2019-03-01T01:58:38.390Z,70.06
2019-03-01T02:01:09.380Z,70.43
2019-03-01T02:03:40.353Z,70.94
2019-03-01T02:06:11.368Z,70.52
2019-03-01T02:08:42.297Z,69.73
2019-03-01T02:11:13.199Z,69.98
2019-03-01T02:13:44.097Z,70.54
2019-03-01T02:16:15.018Z,70.37
2019-03-01T02:18:46.071Z,70.64
2019-03-01T02:21:16.940Z,70.85
2019-03-01T02:23:47.968Z,70.81
2019-03-01T02:26:19.069Z,71.04
2019-03-01T02:28:50.024Z,70.93
2019-03-01T02:31:20.963Z,70.89
2019-03-01T02:33:51.936Z,71.29
2019-03-01T02:36:22.791Z,71.43
2019-03-01T02:38:53.831Z,71.49
2019-03-01T02:41:24.815Z,71.62
2019-03-01T02:43:55.803Z,72.09
2019-03-01T02:46:26.908Z,72.27
2019-03-01T02:48:57.807Z,72.57
2019-03-01T02:51:28.827Z,73.07
2019-03-01T02:53:59.676Z,73.11
2019-03-01T02:56:30.582Z,73.47
2019-03-01T02:59:01.430Z,73.67
2019-03-01T03:01:32.437Z,74.04
2019-03-01T03:04:03.372Z,74.21
2019-03-01T03:06:39.025Z,74.26
2019-03-01T03:09:10.040Z,74.07
2019-03-01T03:11:41.483Z,74.02
2019-03-01T03:14:12.458Z,74.16
2019-03-01T03:16:43.404Z,74.07
2019-03-01T03:19:14.342Z,73.84
2019-03-01T03:21:45.202Z,73.67
2019-03-01T03:24:16.214Z,73.79
2019-03-01T03:26:48.541Z,73.68
2019-03-01T03:29:20.158Z,73.73
2019-03-01T03:31:50.955Z,73.50
2019-03-01T03:34:21.884Z,73.23
2019-03-01T03:36:53.240Z,72.75
2019-03-01T03:39:24.242Z,72.45
2019-03-01T03:41:55.243Z,72.46
2019-03-01T03:44:26.288Z,72.18
2019-03-01T03:46:57.324Z,72.26
2019-03-01T03:49:28.308Z,72.28
2019-03-01T03:51:59.781Z,72.49
2019-03-01T03:54:30.698Z,72.53
2019-03-01T03:57:01.598Z,72.54
2019-03-01T03:59:32.586Z,72.94
2019-03-01T04:02:03.574Z,73.95
2019-03-01T04:04:35.588Z,74.66
2019-03-01T04:07:06.442Z,75.17
2019-03-01T04:09:37.520Z,75.71
2019-03-01T04:12:08.377Z,76.17
2019-03-01T04:14:39.313Z,77.01
2019-03-01T04:17:10.297Z,77.31
2019-03-01T04:19:41.190Z,77.57
2019-03-01T04:22:12.054Z,77.71
2019-03-01T04:24:43.094Z,77.95
2019-03-01T04:27:15.236Z,77.92
2019-03-01T04:29:46.190Z,78.01
2019-03-01T04:32:17.195Z,78.13
2019-03-01T04:34:48.265Z,78.16
2019-03-01T04:37:19.128Z,78.05
2019-03-01T04:39:50.111Z,77.89
2019-03-01T04:42:21.077Z,77.56
2019-03-01T04:44:52.115Z,77.73
2019-03-01T04:47:22.965Z,76.94
2019-03-01T04:49:53.860Z,76.79
2019-03-01T04:52:35.713Z,76.43
2019-03-01T04:55:15.431Z,76.67
2019-03-01T04:57:46.362Z,76.20
2019-03-01T05:00:19.890Z,75.84
2019-03-01T05:02:50.868Z,75.91
2019-03-01T05:05:21.909Z,75.44
2019-03-01T05:07:52.881Z,75.26
2019-03-01T05:10:23.827Z,74.57
2019-03-01T05:12:55.984Z,73.72
2019-03-01T05:15:26.927Z,73.83
2019-03-01T05:17:57.895Z,73.61
2019-03-01T05:20:31.052Z,73.35
2019-03-01T05:23:01.629Z,72.90
2019-03-01T05:25:32.929Z,72.67
2019-03-01T05:28:03.901Z,72.78
2019-03-01T05:30:34.830Z,72.45
2019-03-01T05:33:05.800Z,71.60
2019-03-01T05:35:36.655Z,71.08
2019-03-01T05:38:07.675Z,70.83
2019-03-01T05:40:38.681Z,70.48
2019-03-01T05:43:09.650Z,70.98
2019-03-01T05:45:40.505Z,70.59
2019-03-01T05:48:11.495Z,70.12
2019-03-01T05:50:42.359Z,69.60
2019-03-01T05:53:13.373Z,69.20
2019-03-01T05:55:44.360Z,69.25
2019-03-01T05:58:28.794Z,69.00
2019-03-01T06:01:05.960Z,68.53
2019-03-01T06:03:55.251Z,67.69
2019-03-01T06:06:55.149Z,67.37
2019-03-01T06:09:48.721Z,67.06
2019-03-01T06:12:31.843Z,67.22
2019-03-01T06:15:33.199Z,67.68
2019-03-01T06:18:16.074Z,67.84
2019-03-01T06:20:59.323Z,68.18
2019-03-01T06:23:53.028Z,68.17
2019-03-01T06:26:39.151Z,68.46
2019-03-01T06:29:30.201Z,68.89
2019-03-01T06:32:37.929Z,68.29
2019-03-01T06:35:24.318Z,68.99
2019-03-01T06:38:31.385Z,68.65
2019-03-01T06:41:34.594Z,68.72
2019-03-01T06:44:14.475Z,67.99
2019-03-01T06:47:03.733Z,68.44
2019-03-01T06:49:36.289Z,68.63
2019-03-01T06:52:07.344Z,68.76
2019-03-01T06:54:38.450Z,68.98
2019-03-01T06:57:09.505Z,68.25
2019-03-01T06:59:40.609Z,69.22
2019-03-01T07:02:13.134Z,68.53
2019-03-01T07:04:44.142Z,68.98
2019-03-01T07:07:15.191Z,68.79
2019-03-01T07:09:46.342Z,68.03
2019-03-01T07:12:17.493Z,67.99
2019-03-01T07:14:48.489Z,66.92
2019-03-01T07:17:19.490Z,66.92
2019-03-01T07:19:50.554Z,66.73
2019-03-01T07:22:21.572Z,66.44
2019-03-01T07:24:52.648Z,66.06
2019-03-01T07:27:23.589Z,66.15
2019-03-01T07:29:54.648Z,65.45
2019-03-01T07:32:25.702Z,65.88
2019-03-01T07:34:56.737Z,65.44
2019-03-01T07:37:27.783Z,65.69
2019-03-01T07:39:58.790Z,65.01
2019-03-01T07:42:29.692Z,65.02
2019-03-01T07:45:00.669Z,64.74
2019-03-01T07:47:34.094Z,64.34
2019-03-01T07:50:07.892Z,63.19
2019-03-01T07:52:38.758Z,63.55
2019-03-01T07:55:10.975Z,63.73
2019-03-01T07:57:42.147Z,64.07
2019-03-01T08:00:15.094Z,63.67
2019-03-01T08:02:46.109Z,63.81
2019-03-01T08:05:17.038Z,63.94
2019-03-01T08:07:55.593Z,64.51
2019-03-01T08:10:22.575Z,64.30
2019-03-01T08:12:53.726Z,64.30
2019-03-01T08:15:24.770Z,63.59
2019-03-01T08:17:55.740Z,63.83
2019-03-01T08:20:26.892Z,63.37
2019-03-01T08:22:59.851Z,63.13
2019-03-01T08:25:30.573Z,62.93
2019-03-01T08:28:01.674Z,63.13
2019-03-01T08:30:32.725Z,62.39
2019-03-01T08:33:06.792Z,62.81
2019-03-01T08:35:36.665Z,62.14
2019-03-01T08:38:07.740Z,62.62
2019-03-01T08:40:38.869Z,61.97
2019-03-01T08:43:12.986Z,61.42
2019-03-01T08:45:42.644Z,61.88
2019-03-01T08:48:13.711Z,61.11
2019-03-01T08:50:44.931Z,61.69
2019-03-01T08:53:16.518Z,61.60
2019-03-01T08:55:47.630Z,61.61
2019-03-01T08:58:18.939Z,60.22
2019-03-01T09:00:59.042Z,59.89
2019-03-01T09:03:27.169Z,60.39
2019-03-01T09:05:58.253Z,59.98
2019-03-01T09:08:29.373Z,58.89
2019-03-01T09:11:00.815Z,59.48
2019-03-01T09:13:32.298Z,59.15
2019-03-01T09:16:03.512Z,60.70
2019-03-01T09:18:34.585Z,60.02
2019-03-01T09:21:06.268Z,59.97
2019-03-01T09:23:39.532Z,60.39
2019-03-01T09:26:10.054Z,62.92
2019-03-01T09:28:42.034Z,64.10
2019-03-01T09:31:12.943Z,65.27
2019-03-01T09:33:43.911Z,64.27
2019-03-01T09:36:21.306Z,63.96
2019-03-01T09:38:52.020Z,62.89
2019-03-01T09:41:22.956Z,61.78
2019-03-01T09:43:54.102Z,60.97
2019-03-01T09:46:28.163Z,59.36
2019-03-01T09:48:57.940Z,58.75
2019-03-01T09:51:29.006Z,59.00
2019-03-01T09:54:01.086Z,58.79
2019-03-01T09:56:32.389Z,59.68
2019-03-01T09:59:03.322Z,59.61
2019-03-01T10:01:34.434Z,59.28
2019-03-01T10:04:05.418Z,58.45
2019-03-01T10:06:38.468Z,58.36
2019-03-01T10:09:11.071Z,58.09
2019-03-01T10:11:42.208Z,58.11
2019-03-01T10:14:13.414Z,58.74
2019-03-01T10:16:44.563Z,58.15
2019-03-01T10:19:15.610Z,58.80
2019-03-01T10:21:47.709Z,58.29
2019-03-01T10:24:18.818Z,58.05
2019-03-01T10:26:50.877Z,58.27
2019-03-01T10:29:22.024Z,57.11
2019-03-01T10:31:53.150Z,57.99
2019-03-01T10:34:24.284Z,57.50
2019-03-01T10:36:55.410Z,57.97
2019-03-01T10:39:26.394Z,58.31
2019-03-01T10:41:57.447Z,59.00
2019-03-01T10:44:28.526Z,58.45
2019-03-01T10:46:59.685Z,58.61
2019-03-01T10:49:30.765Z,58.84
2019-03-01T10:52:01.849Z,58.97
2019-03-01T10:54:32.964Z,59.53
2019-03-01T10:57:03.883Z,60.29
2019-03-01T10:59:34.863Z,61.61
2019-03-01T11:02:06.120Z,62.83
2019-03-01T11:04:37.174Z,63.48
2019-03-01T11:07:08.033Z,63.98
2019-03-01T11:09:39.038Z,63.95
2019-03-01T11:12:10.058Z,62.69
2019-03-01T11:14:41.013Z,61.57
2019-03-01T11:17:12.010Z,60.84
2019-03-01T11:19:42.941Z,60.40
2019-03-01T11:22:13.953Z,59.94
2019-03-01T11:24:45.080Z,58.71
2019-03-01T11:27:16.189Z,58.92
2019-03-01T11:29:47.141Z,57.98
2019-03-01T11:32:18.470Z,57.61
2019-03-01T11:34:49.671Z,58.56
2019-03-01T11:37:20.902Z,58.88
2019-03-01T11:39:51.878Z,59.51
2019-03-01T11:42:22.887Z,59.23
2019-03-01T11:44:53.786Z,59.05
2019-03-01T11:47:24.841Z,59.81
2019-03-01T11:49:55.930Z,59.23
2019-03-01T11:52:27.044Z,59.50
2019-03-01T11:54:58.021Z,59.34
2019-03-01T11:57:29.167Z,59.51
2019-03-01T12:00:00.322Z,59.24
2019-03-01T12:02:31.514Z,59.48
2019-03-01T12:05:02.671Z,60.19
2019-03-01T12:07:34.222Z,59.92
2019-03-01T12:10:08.020Z,59.81
2019-03-01T12:12:39.035Z,60.04
2019-03-01T12:15:11.823Z,59.91
2019-03-01T12:17:42.836Z,58.74
2019-03-01T12:20:19.601Z,58.54
2019-03-01T12:22:50.692Z,57.93
2019-03-01T12:25:21.806Z,57.92
2019-03-01T12:27:53.994Z,58.02
2019-03-01T12:30:26.378Z,58.12
2019-03-01T12:32:57.354Z,58.66
2019-03-01T12:35:28.373Z,58.91
2019-03-01T12:37:59.276Z,58.79
2019-03-01T12:40:31.549Z,58.86
2019-03-01T12:43:02.457Z,59.11
2019-03-01T12:45:33.658Z,58.67
2019-03-01T12:48:04.691Z,59.08
2019-03-01T12:50:35.800Z,58.89
2019-03-01T12:53:06.918Z,59.02
2019-03-01T12:55:39.078Z,59.38
2019-03-01T12:58:19.011Z,60.74
2019-03-01T13:00:43.065Z,60.81
2019-03-01T13:03:14.094Z,60.36
2019-03-01T13:05:45.190Z,60.58
2019-03-01T13:08:16.699Z,60.48
2019-03-01T13:10:47.714Z,60.03
2019-03-01T13:13:18.717Z,60.43
2019-03-01T13:15:52.209Z,60.99
2019-03-01T13:18:22.438Z,61.88
2019-03-01T13:20:53.489Z,62.18
2019-03-01T13:23:24.694Z,62.67
2019-03-01T13:25:56.433Z,62.74
2019-03-01T13:28:27.374Z,63.04
2019-03-01T13:30:58.514Z,63.17
2019-03-01T13:33:29.571Z,62.71
2019-03-01T13:36:03.683Z,62.89
2019-03-01T13:38:35.100Z,62.81
2019-03-01T13:41:06.336Z,62.79
2019-03-01T13:43:37.555Z,62.82
2019-03-01T13:46:08.761Z,62.83
2019-03-01T13:48:39.950Z,62.18
2019-03-01T13:51:13.853Z,61.91
2019-03-01T13:53:48.982Z,61.29
2019-03-01T13:56:17.355Z,60.90
2019-03-01T13:58:48.681Z,60.96
2019-03-01T14:01:20.067Z,60.67
2019-03-01T14:03:51.385Z,60.83
2019-03-01T14:06:23.007Z,60.89
2019-03-01T14:08:54.370Z,60.62
2019-03-01T14:11:25.640Z,61.30
2019-03-01T14:13:56.973Z,60.78
2019-03-01T14:16:28.358Z,60.93
2019-03-01T14:18:59.686Z,61.00
2019-03-01T14:21:33.072Z,60.82
2019-03-01T14:24:04.029Z,60.79
2019-03-01T14:26:35.266Z,61.29
2019-03-01T14:29:06.630Z,61.79
2019-03-01T14:31:39.823Z,62.41
2019-03-01T14:34:11.502Z,62.94
2019-03-01T14:36:44.057Z,64.17
2019-03-01T14:39:16.831Z,64.76
2019-03-01T14:41:48.209Z,64.81
2019-03-01T14:44:19.482Z,64.35
2019-03-01T14:46:52.981Z,63.96
2019-03-01T14:49:23.854Z,64.45
2019-03-01T14:51:55.571Z,64.69
2019-03-01T14:54:26.964Z,64.74
2019-03-01T14:56:58.630Z,65.31
2019-03-01T14:59:38.289Z,65.23
2019-03-01T15:02:12.021Z,65.43
2019-03-01T15:04:43.449Z,65.38
2019-03-01T15:07:14.753Z,65.12
2019-03-01T15:09:46.079Z,64.89
2019-03-01T15:12:21.060Z,64.63
2019-03-01T15:14:51.062Z,64.77
2019-03-01T15:17:22.678Z,64.93
2019-03-01T15:19:54.313Z,64.84
2019-03-01T15:22:25.736Z,64.68
2019-03-01T15:24:57.133Z,65.09
2019-03-01T15:27:28.411Z,65.36
2019-03-01T15:29:59.807Z,65.55
2019-03-01T15:32:34.857Z,65.83
2019-03-01T15:35:05.564Z,66.25
2019-03-01T15:37:36.863Z,66.08
2019-03-01T15:40:10.518Z,66.22
2019-03-01T15:42:42.305Z,66.50
2019-03-01T15:45:15.410Z,66.01
2019-03-01T15:47:46.793Z,65.82
2019-03-01T15:50:18.164Z,65.47
2019-03-01T15:52:50.681Z,65.59
2019-03-01T15:55:22.227Z,66.42
2019-03-01T15:57:56.425Z,66.64
2019-03-01T16:00:29.453Z,66.43
2019-03-01T16:02:59.563Z,66.57
2019-03-01T16:05:34.186Z,66.75
2019-03-01T16:08:05.561Z,66.76
2019-03-01T16:10:38.178Z,66.62
2019-03-01T16:13:11.990Z,66.66
2019-03-01T16:15:42.537Z,66.71
2019-03-01T16:18:13.848Z,67.06
2019-03-01T16:20:47.201Z,67.10
2019-03-01T16:23:18.265Z,67.85
2019-03-01T16:25:52.987Z,67.74
2019-03-01T16:28:22.679Z,67.55
2019-03-01T16:30:56.698Z,67.88
2019-03-01T16:33:29.761Z,68.25
2019-03-01T16:36:01.102Z,68.53
2019-03-01T16:38:40.763Z,68.96
2019-03-01T16:41:07.749Z,69.52
2019-03-01T16:43:38.579Z,70.16
2019-03-01T16:46:11.036Z,70.71
2019-03-01T16:48:43.415Z,71.04
2019-03-01T16:51:15.555Z,70.84
2019-03-01T16:53:47.731Z,70.70
2019-03-01T16:56:19.002Z,70.33
2019-03-01T16:58:50.279Z,69.60
2019-03-01T17:01:21.974Z,69.84
2019-03-01T17:03:53.750Z,69.30
2019-03-01T17:06:26.035Z,69.37
2019-03-01T17:08:57.274Z,69.01
2019-03-01T17:11:28.634Z,68.60
2019-03-01T17:14:02.747Z,68.82
2019-03-01T17:16:33.452Z,68.56
2019-03-01T17:19:04.718Z,67.80
2019-03-01T17:21:36.010Z,68.02
2019-03-01T17:24:07.328Z,67.39
2019-03-01T17:26:39.152Z,67.29
2019-03-01T17:29:10.538Z,66.55
2019-03-01T17:31:41.881Z,66.85
2019-03-01T17:34:13.228Z,66.68
2019-03-01T17:36:44.468Z,66.47
2019-03-01T17:39:16.706Z,66.52
2019-03-01T17:41:48.721Z,66.56
2019-03-01T17:44:20.066Z,66.77
2019-03-01T17:46:51.405Z,67.13
2019-03-01T17:49:22.680Z,66.89
2019-03-01T17:51:56.507Z,67.35
2019-03-01T17:54:26.954Z,67.37
2019-03-01T17:56:58.366Z,67.08
2019-03-01T17:59:29.683Z,66.63
2019-03-01T18:02:01.045Z,66.72
2019-03-01T18:04:33.577Z,67.04
2019-03-01T18:07:05.489Z,66.49
2019-03-01T18:09:36.932Z,66.62
2019-03-01T18:12:08.275Z,66.50
2019-03-01T18:14:39.633Z,66.48
2019-03-01T18:17:10.879Z,66.91
2019-03-01T18:19:42.148Z,66.85
2019-03-01T18:22:13.410Z,66.74
2019-03-01T18:24:46.702Z,66.94
2019-03-01T18:27:18.728Z,66.83
2019-03-01T18:29:51.191Z,66.10
2019-03-01T18:32:22.426Z,66.17
2019-03-01T18:34:53.799Z,65.81
2019-03-01T18:37:25.054Z,65.93
2019-03-01T18:39:56.330Z,65.84
2019-03-01T18:42:27.681Z,65.56
2019-03-01T18:44:59.092Z,65.33
2019-03-01T18:47:30.769Z,64.72
2019-03-01T18:50:02.908Z,64.30
2019-03-01T18:52:37.279Z,64.28
2019-03-01T18:55:13.662Z,63.57
2019-03-01T18:57:43.349Z,63.08
2019-03-01T19:00:26.286Z,63.04
2019-03-01T19:02:57.578Z,62.98
2019-03-01T19:05:28.634Z,63.05
2019-03-01T19:08:00.827Z,62.75
2019-03-01T19:10:33.097Z,63.11
2019-03-01T19:13:04.013Z,63.56
2019-03-01T19:15:34.886Z,63.53
2019-03-01T19:18:06.284Z,63.35
2019-03-01T19:20:41.542Z,63.73
2019-03-01T19:23:13.300Z,63.77
2019-03-01T19:25:44.151Z,64.20
2019-03-01T19:28:15.106Z,64.50
2019-03-01T19:30:49.339Z,64.77
2019-03-01T19:33:18.768Z,64.71
2019-03-01T19:35:49.926Z,64.77
2019-03-01T19:38:21.814Z,64.77
2019-03-01T19:40:53.910Z,64.87
2019-03-01T19:43:24.952Z,64.80
2019-03-01T19:45:55.954Z,64.49
2019-03-01T19:48:27.054Z,64.23
2019-03-01T19:51:01.466Z,64.19
2019-03-01T19:53:30.998Z,64.07
2019-03-01T19:56:02.268Z,63.84
2019-03-01T19:58:33.390Z,63.54
2019-03-01T20:01:04.381Z,63.38
2019-03-01T20:03:35.308Z,63.43
2019-03-01T20:06:07.963Z,63.04
2019-03-01T20:08:38.910Z,62.86
2019-03-01T20:11:09.849Z,63.24
2019-03-01T20:13:41.952Z,63.14
2019-03-01T20:16:12.994Z,63.68
2019-03-01T20:18:45.036Z,63.21
2019-03-01T20:21:16.599Z,63.25
2019-03-01T20:23:47.572Z,62.58
2019-03-01T20:26:18.595Z,62.64
2019-03-01T20:28:50.539Z,62.53
2019-03-01T20:31:23.425Z,62.56
2019-03-01T20:33:54.388Z,61.64
2019-03-01T20:36:25.247Z,61.72
2019-03-01T20:38:56.287Z,61.10
2019-03-01T20:41:27.189Z,60.74
2019-03-01T20:43:58.240Z,60.99
2019-03-01T20:46:29.271Z,61.09
2019-03-01T20:49:00.717Z,61.08
2019-03-01T20:51:33.008Z,60.86
2019-03-01T20:54:03.910Z,61.15
2019-03-01T20:56:34.865Z,61.07
2019-03-01T20:59:05.760Z,61.13
2019-03-01T21:01:37.307Z,61.07
2019-03-01T21:04:09.262Z,61.40
2019-03-01T21:06:40.567Z,61.35
2019-03-01T21:09:11.694Z,61.52
2019-03-01T21:11:42.753Z,61.79
2019-03-01T21:14:13.694Z,62.03
2019-03-01T21:16:45.665Z,62.16
2019-03-01T21:19:17.828Z,62.78
2019-03-01T21:21:48.763Z,63.14
2019-03-01T21:24:22.932Z,62.69
2019-03-01T21:26:52.257Z,62.28
2019-03-01T21:29:23.115Z,62.28
2019-03-01T21:31:54.118Z,62.59
2019-03-01T21:34:25.213Z,63.62
2019-03-01T21:36:58.975Z,63.68
2019-03-01T21:39:29.996Z,64.73
2019-03-01T21:42:01.098Z,64.90
2019-03-01T21:44:32.062Z,65.53
2019-03-01T21:47:03.069Z,66.03
2019-03-01T21:49:34.154Z,66.12
2019-03-01T21:52:05.151Z,67.01
2019-03-01T21:54:36.137Z,67.16
2019-03-01T21:57:07.030Z,67.55
2019-03-01T21:59:37.928Z,67.40
2019-03-01T22:02:08.808Z,67.77
2019-03-01T22:04:39.769Z,67.71
2019-03-01T22:07:10.691Z,68.26
2019-03-01T22:09:42.754Z,68.58
2019-03-01T22:12:13.792Z,68.81
2019-03-01T22:14:45.682Z,68.62
2019-03-01T22:17:17.428Z,68.40
2019-03-01T22:19:48.348Z,68.65
2019-03-01T22:22:19.289Z,68.79
2019-03-01T22:24:50.241Z,69.04
2019-03-01T22:27:25.059Z,69.27
2019-03-01T22:29:54.198Z,69.37
2019-03-01T22:32:25.051Z,69.84
2019-03-01T22:34:55.952Z,70.17
2019-03-01T22:37:28.397Z,70.45
2019-03-01T22:39:59.557Z,70.62
2019-03-01T22:42:30.493Z,70.87
2019-03-01T22:45:01.442Z,71.12
2019-03-01T22:47:36.063Z,71.36
2019-03-01T22:50:09.529Z,71.41
2019-03-01T22:52:40.428Z,71.83
2019-03-01T22:55:15.827Z,72.07
2019-03-01T22:57:46.705Z,71.55
2019-03-01T23:00:47.992Z,71.61
2019-03-01T23:03:20.562Z,71.58
2019-03-01T23:05:51.622Z,71.60
2019-03-01T23:08:22.690Z,71.74
2019-03-01T23:10:53.701Z,71.33
2019-03-01T23:13:26.211Z,71.29
2019-03-01T23:15:57.151Z,71.07
2019-03-01T23:18:28.184Z,70.60
2019-03-01T23:21:01.003Z,70.33
2019-03-01T23:23:31.803Z,70.43
2019-03-01T23:26:02.865Z,70.27
2019-03-01T23:28:34.785Z,70.36
2019-03-01T23:31:05.849Z,70.28
2019-03-01T23:33:36.766Z,70.11
2019-03-01T23:36:07.768Z,69.78
2019-03-01T23:38:38.668Z,69.60
2019-03-01T23:41:11.500Z,70.14
2019-03-01T23:43:43.212Z,70.48
2019-03-01T23:46:14.113Z,70.58
2019-03-01T23:48:45.494Z,70.66
2019-03-01T23:51:17.804Z,70.43
2019-03-01T23:53:48.704Z,70.66
2019-03-01T23:56:19.694Z,70.37
2019-03-01T23:58:51.839Z,70.13
